De Kooy, Netherlands
Current Conditions -  °F | °C
As of 11:25 AM on Sunday 26 Oct 2014 (Local Time) from EHKD Reporting Station
Broken Clouds Broken Clouds  
Wind Chill: 59°   Ceiling: 22000
Heat Index: 59°   Visibility: 6mi
Dew Point: 50°   Wind: 16mph
Humidity: 72%   Direction: 230°SW
Pressure: 30.15"   Gusts: NA
Location:  52.92°N, 4.78°E
Report Text: EHKD 260925Z AUTO 23014KT 9999 SCT026 SCT030 BKN220 15/10 Q1021 BLU 24020KT 9999 FEW025 SCT035
Loading
Personal Weather Stations






























Interactive Weather Map
Tropical Storm Tracking
New forecast layout! Learn more

10-Day Weather Forecast

Advertisements
Track Severe Weather on mobile